^^
Your Local Weather - Clay, NY Station Historical Data
Daily Summary for October 1, 2017 Units:  English    Metric   Both
« Previous Day
Next Day »
Daily Weekly Monthly Yearly Custom
  High: Low: Average:
Temperature: 64.2 °F 35.6 °F 48 °F
Dew Point: 51.0 °F 33.8 °F 41.5 °F
Humidity: 94% 48% 80%
Wind Speed: 4.0mph 0.0mph 0.5mph
Wind Gust: 6.0mph - -
Wind- - WSW
Pressure: 30.42 in 30.27 in -
Precipitation: 0.00 in    
Historical Graphs
 
 
Tabular Data for October 1, 2017
Time Temperature Dew Point Pressure Wind Wind Speed Wind Gust Humidity Rainfall Rate (Hourly) solar
00:04 38.8 °F 36.7 °F 30.37 in Calm     92% 0.00 in 0 W/m2
00:10 38.8 °F 36.7 °F 30.37 in Calm     92% 0.00 in 0 W/m2
00:16 38.7 °F 36.6 °F 30.37 in Calm     92% 0.00 in 0 W/m2
00:22 38.6 °F 36.5 °F 30.37 in Calm     92% 0.00 in 0 W/m2
00:28 38.7 °F 36.6 °F 30.37 in Calm     92% 0.00 in 0 W/m2
00:34 38.7 °F 36.6 °F 30.37 in Calm     92% 0.00 in 0 W/m2
00:40 38.6 °F 36.5 °F 30.37 in Calm     92% 0.00 in 0 W/m2
00:46 38.3 °F 36.2 °F 30.38 in Calm     92% 0.00 in 0 W/m2
00:52 38.2 °F 36.1 °F 30.38 in Calm     92% 0.00 in 0 W/m2
00:58 38.0 °F 35.9 °F 30.38 in Calm     92% 0.00 in 0 W/m2
01:06 37.7 °F 35.6 °F 30.38 in Calm     92% 0.00 in 0 W/m2
01:12 38.0 °F 36.2 °F 30.38 in Calm     93% 0.00 in 0 W/m2
01:18 38.4 °F 36.6 °F 30.38 in Calm     93% 0.00 in 0 W/m2
01:24 38.3 °F 36.5 °F 30.38 in Calm     93% 0.00 in 0 W/m2
01:30 38.1 °F 36.3 °F 30.38 in Calm     93% 0.00 in 0 W/m2
01:36 37.8 °F 35.7 °F 30.38 in Calm     92% 0.00 in 0 W/m2
01:42 37.7 °F 35.9 °F 30.38 in Calm     93% 0.00 in 0 W/m2
01:48 37.5 °F 35.4 °F 30.38 in Calm     92% 0.00 in 0 W/m2
01:54 37.3 °F 35.2 °F 30.38 in Calm     92% 0.00 in 0 W/m2
02:00 37.3 °F 35.2 °F 30.38 in Calm     92% 0.00 in 0 W/m2
02:06 37.3 °F 35.5 °F 30.38 in Calm     93% 0.00 in 0 W/m2
02:12 37.4 °F 35.6 °F 30.38 in Calm     93% 0.00 in 0 W/m2
02:18 37.3 °F 35.5 °F 30.38 in Calm     93% 0.00 in 0 W/m2
02:24 37.3 °F 35.5 °F 30.38 in Calm     93% 0.00 in 0 W/m2
02:30 37.2 °F 35.4 °F 30.38 in Calm     93% 0.00 in 0 W/m2
02:36 37.1 °F 35.3 °F 30.38 in Calm     93% 0.00 in 0 W/m2
02:42 37.3 °F 35.5 °F 30.38 in Calm     93% 0.00 in 0 W/m2
02:48 37.4 °F 35.6 °F 30.38 in Calm     93% 0.00 in 0 W/m2
02:54 37.5 °F 35.7 °F 30.38 in Calm     93% 0.00 in 0 W/m2
03:00 37.4 °F 35.6 °F 30.37 in Calm     93% 0.00 in 0 W/m2
03:06 37.4 °F 35.6 °F 30.37 in Calm     93% 0.00 in 0 W/m2
03:12 37.5 °F 35.7 °F 30.37 in Calm     93% 0.00 in 0 W/m2
03:18 37.4 °F 35.6 °F 30.37 in Calm     93% 0.00 in 0 W/m2
03:26 37.1 °F 35.3 °F 30.38 in Calm     93% 0.00 in 0 W/m2
03:32 37.2 °F 35.4 °F 30.38 in Calm     93% 0.00 in 0 W/m2
03:38 37.1 °F 35.3 °F 30.38 in Calm     93% 0.00 in 0 W/m2
03:44 37.0 °F 35.2 °F 30.38 in Calm     93% 0.00 in 0 W/m2
03:50 37.0 °F 35.2 °F 30.37 in Calm     93% 0.00 in 0 W/m2
03:56 37.1 °F 35.3 °F 30.37 in Calm     93% 0.00 in 0 W/m2
04:02 37.0 °F 35.2 °F 30.37 in Calm     93% 0.00 in 0 W/m2
04:10 36.8 °F 35.0 °F 30.37 in Calm     93% 0.00 in 0 W/m2
04:16 36.8 °F 35.0 °F 30.37 in Calm     93% 0.00 in 0 W/m2
04:22 37.0 °F 35.2 °F 30.37 in Calm     93% 0.00 in 0 W/m2
04:28 36.9 °F 35.1 °F 30.37 in Calm     93% 0.00 in 0 W/m2
04:34 36.8 °F 35.0 °F 30.37 in Calm     93% 0.00 in 0 W/m2
04:40 36.7 °F 34.9 °F 30.37 in Calm     93% 0.00 in 0 W/m2
04:46 36.6 °F 34.8 °F 30.37 in Calm     93% 0.00 in 0 W/m2
04:52 36.7 °F 34.9 °F 30.37 in Calm     93% 0.00 in 0 W/m2
04:58 36.7 °F 34.9 °F 30.37 in Calm     93% 0.00 in 0 W/m2
05:04 36.4 °F 34.6 °F 30.37 in Calm     93% 0.00 in 0 W/m2
05:10 36.2 °F 34.4 °F 30.38 in Calm     93% 0.00 in 0 W/m2
05:16 36.0 °F 34.2 °F 30.38 in Calm     93% 0.00 in 0 W/m2
05:22 35.8 °F 34.0 °F 30.38 in Calm     93% 0.00 in 0 W/m2
05:28 35.7 °F 33.9 °F 30.38 in Calm     93% 0.00 in 0 W/m2
05:34 35.7 °F 33.9 °F 30.38 in Calm     93% 0.00 in 0 W/m2
05:40 35.6 °F 33.8 °F 30.37 in Calm     93% 0.00 in 0 W/m2
05:46 35.6 °F 33.8 °F 30.37 in Calm     93% 0.00 in 0 W/m2
05:52 35.6 °F 33.8 °F 30.37 in Calm     93% 0.00 in 0 W/m2
05:58 35.8 °F 34.2 °F 30.38 in Calm     94% 0.00 in 0 W/m2
06:04 35.9 °F 34.3 °F 30.38 in Calm     94% 0.00 in 0 W/m2
06:10 35.8 °F 34.2 °F 30.38 in Calm     94% 0.00 in 0 W/m2
06:16 35.9 °F 34.3 °F 30.38 in Calm     94% 0.00 in 0 W/m2
06:22 36.1 °F 34.5 °F 30.39 in Calm     94% 0.00 in 0 W/m2
06:28 36.1 °F 34.5 °F 30.39 in Calm     94% 0.00 in 0 W/m2
06:34 36.2 °F 34.6 °F 30.39 in Calm     94% 0.00 in 0 W/m2
06:40 36.3 °F 34.7 °F 30.39 in Calm     94% 0.00 in 0 W/m2
06:46 36.6 °F 35.0 °F 30.39 in Calm     94% 0.00 in 0 W/m2
06:52 36.5 °F 34.9 °F 30.39 in Calm     94% 0.00 in 0 W/m2
06:58 36.3 °F 34.7 °F 30.39 in Calm     94% 0.00 in 0 W/m2
07:04 36.1 °F 34.5 °F 30.39 in Calm     94% 0.00 in 5 W/m2
07:10 35.9 °F 34.3 °F 30.39 in Calm     94% 0.00 in 7 W/m2
07:16 36.1 °F 34.5 °F 30.39 in Calm     94% 0.00 in 9 W/m2
07:22 36.2 °F 34.6 °F 30.39 in Calm     94% 0.00 in 12 W/m2
07:28 36.4 °F 34.8 °F 30.39 in Calm     94% 0.00 in 18 W/m2
07:34 36.4 °F 34.8 °F 30.39 in Calm     94% 0.00 in 30 W/m2
07:40 36.6 °F 35.0 °F 30.40 in Calm     94% 0.00 in 33 W/m2
07:46 37.0 °F 35.4 °F 30.40 in Calm     94% 0.00 in 42 W/m2
07:52 37.3 °F 35.7 °F 30.40 in Calm     94% 0.00 in 30 W/m2
07:58 37.6 °F 36.0 °F 30.40 in Calm     94% 0.00 in 37 W/m2
08:04 37.9 °F 36.3 °F 30.40 in Calm     94% 0.00 in 60 W/m2
08:10 38.5 °F 36.9 °F 30.40 in Calm     94% 0.00 in 95 W/m2
08:16 39.1 °F 37.5 °F 30.40 in Calm   1.0 mph 94% 0.00 in 65 W/m2
08:22 39.9 °F 38.3 °F 30.40 in Calm     94% 0.00 in 70 W/m2
08:28 40.4 °F 38.8 °F 30.40 in Calm     94% 0.00 in 63 W/m2
08:34 41.1 °F 39.5 °F 30.40 in NNW 1.0 mph 3.0 mph 94% 0.00 in 109 W/m2
08:40 41.8 °F 40.2 °F 30.40 in NNW 1.0 mph 2.0 mph 94% 0.00 in 116 W/m2
08:46 42.2 °F 40.6 °F 30.40 in NNW 1.0 mph 2.0 mph 94% 0.00 in 113 W/m2
08:52 42.5 °F 40.9 °F 30.40 in NNW 1.0 mph 2.0 mph 94% 0.00 in 113 W/m2
08:58 42.9 °F 41.3 °F 30.40 in NNW 1.0 mph 3.0 mph 94% 0.00 in 127 W/m2
09:04 43.2 °F 41.6 °F 30.40 in NNW 1.0 mph 2.0 mph 94% 0.00 in 156 W/m2
09:10 43.6 °F 42.0 °F 30.40 in NNW 1.0 mph 1.0 mph 94% 0.00 in 132 W/m2
09:16 44.1 °F 42.5 °F 30.40 in Calm   1.0 mph 94% 0.00 in 141 W/m2
09:22 44.4 °F 42.8 °F 30.41 in Calm   3.0 mph 94% 0.00 in 160 W/m2
09:28 44.7 °F 43.1 °F 30.40 in NNW 1.0 mph 3.0 mph 94% 0.00 in 262 W/m2
09:34 45.4 °F 43.8 °F 30.41 in NNW 1.0 mph 2.0 mph 94% 0.00 in 190 W/m2
09:40 46.2 °F 44.6 °F 30.41 in NNW 1.0 mph 1.0 mph 94% 0.00 in 178 W/m2
09:46 46.9 °F 45.0 °F 30.41 in Calm   2.0 mph 93% 0.00 in 151 W/m2
09:52 47.1 °F 44.6 °F 30.42 in Calm     91% 0.00 in 176 W/m2
09:58 48.2 °F 45.4 °F 30.41 in Calm     90% 0.00 in 218 W/m2
10:06 48.9 °F 44.9 °F 30.41 in Calm     86% 0.00 in 193 W/m2
10:12 50.3 °F 46.6 °F 30.41 in SW 1.0 mph 2.0 mph 87% 0.00 in 214 W/m2
10:18 50.8 °F 45.8 °F 30.41 in South 2.0 mph 2.0 mph 83% 0.00 in 172 W/m2
10:24 52.8 °F 47.8 °F 30.41 in WSW 2.0 mph 2.0 mph 83% 0.00 in 612 W/m2
10:30 53.9 °F 47.5 °F 30.41 in WSW 1.0 mph 1.0 mph 79% 0.00 in 158 W/m2
10:36 54.6 °F 46.1 °F 30.41 in WSW 1.0 mph 1.0 mph 73% 0.00 in 582 W/m2
10:42 55.1 °F 45.5 °F 30.41 in SSW 2.0 mph 4.0 mph 70% 0.00 in 591 W/m2
10:48 55.8 °F 46.9 °F 30.41 in West 1.0 mph 4.0 mph 72% 0.00 in 605 W/m2
10:54 55.5 °F 45.5 °F 30.41 in SW 1.0 mph 2.0 mph 69% 0.00 in 615 W/m2
11:00 55.8 °F 45.8 °F 30.41 in SW 2.0 mph 2.0 mph 69% 0.00 in 622 W/m2
11:06 56.7 °F 46.3 °F 30.40 in SSW 2.0 mph 2.0 mph 68% 0.00 in 636 W/m2
11:12 56.6 °F 46.2 °F 30.40 in West 2.0 mph 5.0 mph 68% 0.00 in 643 W/m2
11:18 56.8 °F 46.7 °F 30.40 in SW 2.0 mph 5.0 mph 69% 0.00 in 652 W/m2
11:24 58.3 °F 47.0 °F 30.40 in NW 2.0 mph 2.0 mph 66% 0.00 in 663 W/m2
11:30 58.4 °F 48.3 °F 30.40 in NW 1.0 mph 1.0 mph 69% 0.00 in 671 W/m2
11:36 58.1 °F 46.8 °F 30.40 in NW 1.0 mph 2.0 mph 66% 0.00 in 701 W/m2
11:42 59.1 °F 47.3 °F 30.40 in West 1.0 mph 4.0 mph 65% 0.00 in 854 W/m2
11:48 58.5 °F 47.6 °F 30.39 in West 1.0 mph 4.0 mph 67% 0.00 in 243 W/m2
11:54 57.6 °F 46.3 °F 30.39 in NW 1.0 mph 1.0 mph 66% 0.00 in 448 W/m2
12:00 60.1 °F 51.0 °F 30.39 in NW 1.0 mph 2.0 mph 72% 0.00 in 448 W/m2
12:06 59.7 °F 47.5 °F 30.39 in North 2.0 mph 3.0 mph 64% 0.00 in 251 W/m2
12:12 58.0 °F 46.7 °F 30.38 in West 1.0 mph 3.0 mph 66% 0.00 in 172 W/m2
12:18 58.1 °F 49.1 °F 30.38 in WNW 1.0 mph 3.0 mph 72% 0.00 in 791 W/m2
12:24 60.5 °F 48.7 °F 30.38 in WNW 1.0 mph 3.0 mph 65% 0.00 in 895 W/m2
12:30 59.6 °F 47.0 °F 30.38 in NW 1.0 mph 2.0 mph 63% 0.00 in 190 W/m2
12:36 58.4 °F 45.8 °F 30.37 in North 2.0 mph 3.0 mph 63% 0.00 in 213 W/m2
12:42 58.6 °F 46.5 °F 30.37 in North 2.0 mph 2.0 mph 64% 0.00 in 357 W/m2
12:54 58.3 °F 46.2 °F 30.37 in North 1.0 mph 2.0 mph 64% 0.00 in 169 W/m2
13:00 57.9 °F 45.8 °F 30.37 in North 1.0 mph 2.0 mph 64% 0.00 in 211 W/m2
13:06 58.5 °F 45.9 °F 30.36 in North 1.0 mph 2.0 mph 63% 0.00 in 160 W/m2
13:12 58.6 °F 46.5 °F 30.36 in Calm     64% 0.00 in 158 W/m2
13:18 59.9 °F 45.5 °F 30.35 in WSW 1.0 mph 2.0 mph 59% 0.00 in 765 W/m2
13:24 60.8 °F 48.1 °F 30.35 in SW 2.0 mph 2.0 mph 63% 0.00 in 789 W/m2
13:30 60.2 °F 45.8 °F 30.35 in NW 1.0 mph 1.0 mph 59% 0.00 in 223 W/m2
13:36 60.1 °F 46.2 °F 30.34 in WNW 1.0 mph 1.0 mph 60% 0.00 in 754 W/m2
13:42 61.3 °F 46.4 °F 30.34 in North 1.0 mph 2.0 mph 58% 0.00 in 770 W/m2
13:48 61.6 °F 46.2 °F 30.34 in NNE 2.0 mph 3.0 mph 57% 0.00 in 789 W/m2
13:54 62.2 °F 45.3 °F 30.34 in NE 2.0 mph 5.0 mph 54% 0.00 in 826 W/m2
14:00 62.9 °F 46.5 °F 30.34 in NNE 3.0 mph 6.0 mph 55% 0.00 in 780 W/m2
14:06 62.7 °F 44.8 °F 30.33 in NNW 3.0 mph 6.0 mph 52% 0.00 in 733 W/m2
14:12 62.7 °F 44.8 °F 30.32 in North 1.0 mph 3.0 mph 52% 0.00 in 712 W/m2
14:18 62.8 °F 46.9 °F 30.32 in NNW 1.0 mph 6.0 mph 56% 0.00 in 714 W/m2
14:24 62.7 °F 45.8 °F 30.32 in SSW 2.0 mph 3.0 mph 54% 0.00 in 724 W/m2
14:30 62.4 °F 46.5 °F 30.32 in West 4.0 mph 4.0 mph 56% 0.00 in 700 W/m2
14:36 63.3 °F 49.2 °F 30.32 in NW 3.0 mph 4.0 mph 60% 0.00 in 673 W/m2
14:42 63.3 °F 47.3 °F 30.31 in NNW 2.0 mph 4.0 mph 56% 0.00 in 649 W/m2
14:48 63.2 °F 46.8 °F 30.31 in NNW 2.0 mph 4.0 mph 55% 0.00 in 629 W/m2
14:54 63.7 °F 47.2 °F 30.31 in NW 1.0 mph 2.0 mph 55% 0.00 in 619 W/m2
15:06 63.0 °F 48.0 °F 30.31 in West 1.0 mph 3.0 mph 58% 0.00 in 592 W/m2
15:12 63.2 °F 44.2 °F 30.31 in WSW 1.0 mph 1.0 mph 50% 0.00 in 582 W/m2
15:18 63.1 °F 45.2 °F 30.30 in NNE 1.0 mph 4.0 mph 52% 0.00 in 568 W/m2
15:24 63.8 °F 45.3 °F 30.30 in NW 1.0 mph 4.0 mph 51% 0.00 in 557 W/m2
15:30 64.2 °F 46.2 °F 30.30 in NW 1.0 mph 3.0 mph 52% 0.00 in 543 W/m2
15:36 64.2 °F 45.2 °F 30.30 in NNW 1.0 mph 3.0 mph 50% 0.00 in 529 W/m2
15:42 63.7 °F 43.6 °F 30.29 in NW 1.0 mph 2.0 mph 48% 0.00 in 519 W/m2
15:48 63.3 °F 44.9 °F 30.29 in NNW 2.0 mph 3.0 mph 51% 0.00 in 501 W/m2
15:54 63.4 °F 44.4 °F 30.29 in NNW 2.0 mph 5.0 mph 50% 0.00 in 485 W/m2
16:00 63.4 °F 45.5 °F 30.29 in NNW 2.0 mph 2.0 mph 52% 0.00 in 468 W/m2
16:06 63.9 °F 44.9 °F 30.29 in NNW 1.0 mph 2.0 mph 50% 0.00 in 454 W/m2
16:12 64.1 °F 44.5 °F 30.29 in North 1.0 mph 1.0 mph 49% 0.00 in 436 W/m2
16:18 63.5 °F 44.0 °F 30.29 in SW 2.0 mph 2.0 mph 49% 0.00 in 425 W/m2
16:24 63.6 °F 45.6 °F 30.29 in NNW 2.0 mph 4.0 mph 52% 0.00 in 415 W/m2
16:30 63.2 °F 45.3 °F 30.28 in SSW 1.0 mph 1.0 mph 52% 0.00 in 399 W/m2
16:36 63.6 °F 46.1 °F 30.28 in North 1.0 mph 5.0 mph 53% 0.00 in 373 W/m2
16:42 63.3 °F 44.9 °F 30.28 in NNE 1.0 mph 2.0 mph 51% 0.00 in 352 W/m2
16:48 63.7 °F 45.7 °F 30.28 in NNE 1.0 mph 2.0 mph 52% 0.00 in 336 W/m2
16:54 63.5 °F 44.5 °F 30.27 in NNE 1.0 mph 3.0 mph 50% 0.00 in 320 W/m2
17:00 63.4 °F 46.0 °F 30.27 in North 1.0 mph 1.0 mph 53% 0.00 in 302 W/m2
17:06 63.2 °F 45.8 °F 30.27 in North 1.0 mph 1.0 mph 53% 0.00 in 285 W/m2
17:12 63.0 °F 45.6 °F 30.27 in North 1.0 mph 4.0 mph 53% 0.00 in 267 W/m2
17:18 62.6 °F 45.2 °F 30.27 in North 1.0 mph 4.0 mph 53% 0.00 in 248 W/m2
17:24 62.7 °F 45.8 °F 30.27 in North 1.0 mph 1.0 mph 54% 0.00 in 229 W/m2
17:30 62.5 °F 46.1 °F 30.27 in Calm   1.0 mph 55% 0.00 in 211 W/m2
17:36 62.1 °F 46.2 °F 30.27 in NNW 1.0 mph 2.0 mph 56% 0.00 in 181 W/m2
17:42 61.5 °F 45.7 °F 30.27 in NW 1.0 mph 3.0 mph 56% 0.00 in 116 W/m2
17:48 60.9 °F 45.6 °F 30.27 in NW 1.0 mph 3.0 mph 57% 0.00 in 83 W/m2
17:54 60.4 °F 46.0 °F 30.27 in Calm   1.0 mph 59% 0.00 in 28 W/m2
18:00 59.9 °F 46.4 °F 30.28 in Calm     61% 0.00 in 25 W/m2
18:06 59.6 °F 47.4 °F 30.28 in Calm     64% 0.00 in 23 W/m2
18:12 59.2 °F 48.6 °F 30.28 in Calm     68% 0.00 in 19 W/m2
18:18 58.6 °F 48.5 °F 30.28 in Calm     69% 0.00 in 18 W/m2
18:24 57.9 °F 47.8 °F 30.28 in Calm     69% 0.00 in 14 W/m2
18:30 57.3 °F 47.6 °F 30.28 in NW 1.0 mph 1.0 mph 70% 0.00 in 11 W/m2
18:36 56.8 °F 47.5 °F 30.28 in Calm   1.0 mph 71% 0.00 in 7 W/m2
18:42 56.1 °F 47.6 °F 30.28 in Calm   1.0 mph 73% 0.00 in 5 W/m2
18:48 55.5 °F 47.3 °F 30.29 in Calm   1.0 mph 74% 0.00 in 0 W/m2
18:54 54.7 °F 47.3 °F 30.29 in Calm     76% 0.00 in 0 W/m2
19:00 54.0 °F 47.3 °F 30.29 in Calm     78% 0.00 in 0 W/m2
19:06 53.4 °F 47.0 °F 30.29 in Calm     79% 0.00 in 0 W/m2
19:12 52.8 °F 46.8 °F 30.29 in Calm   2.0 mph 80% 0.00 in 0 W/m2
19:18 52.4 °F 46.7 °F 30.29 in Calm   2.0 mph 81% 0.00 in 0 W/m2
19:24 52.0 °F 46.3 °F 30.29 in Calm   1.0 mph 81% 0.00 in 0 W/m2
19:30 51.8 °F 46.5 °F 30.29 in Calm     82% 0.00 in 0 W/m2
19:36 51.4 °F 46.1 °F 30.29 in Calm     82% 0.00 in 0 W/m2
19:42 51.1 °F 46.4 °F 30.29 in Calm     84% 0.00 in 0 W/m2
19:48 50.9 °F 46.2 °F 30.29 in Calm   2.0 mph 84% 0.00 in 0 W/m2
19:54 50.6 °F 46.3 °F 30.29 in Calm     85% 0.00 in 0 W/m2
20:00 50.2 °F 45.9 °F 30.29 in Calm     85% 0.00 in 0 W/m2
20:06 49.8 °F 45.5 °F 30.29 in Calm     85% 0.00 in 0 W/m2
20:12 49.3 °F 45.3 °F 30.29 in Calm     86% 0.00 in 0 W/m2
20:18 48.9 °F 44.9 °F 30.29 in Calm     86% 0.00 in 0 W/m2
20:24 48.6 °F 44.9 °F 30.29 in Calm     87% 0.00 in 0 W/m2
20:30 48.3 °F 44.6 °F 30.30 in Calm     87% 0.00 in 0 W/m2
20:36 48.1 °F 44.7 °F 30.30 in Calm     88% 0.00 in 0 W/m2
20:42 47.8 °F 44.4 °F 30.30 in Calm     88% 0.00 in 0 W/m2
20:48 47.5 °F 44.1 °F 30.30 in Calm     88% 0.00 in 0 W/m2
20:54 47.3 °F 44.2 °F 30.30 in Calm     89% 0.00 in 0 W/m2
21:02 47.0 °F 43.9 °F 30.30 in Calm     89% 0.00 in 0 W/m2
21:08 46.6 °F 43.5 °F 30.30 in Calm     89% 0.00 in 0 W/m2
21:14 46.2 °F 43.1 °F 30.30 in Calm     89% 0.00 in 0 W/m2
21:20 45.9 °F 42.8 °F 30.30 in Calm     89% 0.00 in 0 W/m2
21:26 45.6 °F 42.5 °F 30.30 in Calm     89% 0.00 in 0 W/m2
21:32 45.3 °F 42.2 °F 30.30 in Calm     89% 0.00 in 0 W/m2
21:36 45.2 °F 42.4 °F 30.30 in Calm     90% 0.00 in 0 W/m2
21:42 45.0 °F 42.2 °F 30.30 in Calm     90% 0.00 in 0 W/m2
21:48 44.8 °F 42.0 °F 30.30 in Calm     90% 0.00 in 0 W/m2
21:54 44.7 °F 41.9 °F 30.30 in Calm     90% 0.00 in 0 W/m2
22:00 44.6 °F 42.1 °F 30.30 in Calm     91% 0.00 in 0 W/m2
22:06 44.4 °F 41.7 °F 30.30 in Calm     90% 0.00 in 0 W/m2
22:12 44.1 °F 41.6 °F 30.30 in Calm     91% 0.00 in 0 W/m2
22:18 44.0 °F 41.5 °F 30.30 in Calm     91% 0.00 in 0 W/m2
22:26 43.8 °F 41.3 °F 30.30 in Calm     91% 0.00 in 0 W/m2
22:32 43.6 °F 41.1 °F 30.31 in Calm     91% 0.00 in 0 W/m2
22:40 43.6 °F 41.1 °F 30.31 in Calm     91% 0.00 in 0 W/m2
22:46 43.4 °F 40.9 °F 30.31 in Calm     91% 0.00 in 0 W/m2
22:52 43.3 °F 40.8 °F 30.31 in Calm     91% 0.00 in 0 W/m2
22:58 43.2 °F 40.8 °F 30.31 in Calm     91% 0.00 in 0 W/m2
23:04 43.0 °F 40.6 °F 30.31 in Calm     91% 0.00 in 0 W/m2
23:10 42.8 °F 40.4 °F 30.31 in Calm     91% 0.00 in 0 W/m2
23:16 42.6 °F 40.4 °F 30.31 in Calm     92% 0.00 in 0 W/m2
23:22 42.4 °F 40.0 °F 30.31 in Calm     91% 0.00 in 0 W/m2
23:28 42.2 °F 39.8 °F 30.31 in Calm     91% 0.00 in 0 W/m2
23:34 42.0 °F 39.8 °F 30.31 in Calm     92% 0.00 in 0 W/m2
23:40 42.1 °F 39.9 °F 30.31 in Calm     92% 0.00 in 0 W/m2
23:46 42.0 °F 39.8 °F 30.31 in Calm     92% 0.00 in 0 W/m2
23:52 42.1 °F 39.9 °F 30.31 in Calm     92% 0.00 in 0 W/m2
23:58 42.0 °F 39.8 °F 30.31 in Calm     92% 0.00 in 0 W/m2
Country Meadow, Clay, NY, USA
Compliments of Weather Underground - 2 mb